KBOK/BOK METAR and TAF weather

Enter ICAO airport designator
Station Type Date Time Source
KBOK METAR 2021/05/13 19:17 UTC NOAA

KBOK 131917Z AUTO VRB03KT 8SM OVC003 09/09 A3011 RMK AO2 RAE11 P0000


Station Type Date Time Source
KBOK Decoded METAR 2021/05/13 19:17 UTC NOAA

Brookings, Brookings Airport, OR, United States (KBOK) 42-04-28N 124-17-24W
May 13, 2021 - 03:17 PM EDT / 2021.05.13 1917 UTC
Wind: Variable at 3 MPH (3 KT):0
Visibility: 8 mile(s):0
Sky conditions: overcast
Precipitation last hour: A trace
Temperature: 48 F (9 C)
Dew Point: 48 F (9 C)
Relative Humidity: 100%
Pressure (altimeter): 30.11 in. Hg (1019 hPa)
ob: KBOK 131917Z AUTO VRB03KT 8SM OVC003 09/09 A3011 RMK AO2 RAE11 P0000
cycle: 19

Station Type Date Time Source
KBOK TAF UTC NOAA

Error!

Example: see airport list